Time,TemperatureF,DewpointF,PressureIn,WindDirection,WindDirectionDegrees,WindSpeedMPH,WindSpeedGustMPH,Humidity,HourlyPrecipIn,Conditions,Clouds,dailyrainin,SoftwareType,DateUTC
2013-03-13 00:03:00,32.5,26.7,26.46,NNW,338,4.4,5.8,79,0.00,,,0.00,WUHU216HW,2013-03-13 04:03:00,
2013-03-13 00:08:00,32.3,26.6,26.46,NNW,338,3.5,4.4,79,0.00,,,0.00,WUHU216HW,2013-03-13 04:08:00,
2013-03-13 00:13:00,32.1,26.4,26.46,NNW,338,3.8,6.0,79,0.00,,,0.00,WUHU216HW,2013-03-13 04:13:00,
2013-03-13 00:18:00,32.1,26.4,26.46,NW,315,6.2,6.2,79,0.00,,,0.00,WUHU216HW,2013-03-13 04:18:00,
2013-03-13 00:23:00,32.1,26.4,26.46,NNW,338,1.7,6.2,79,0.00,,,0.00,WUHU216HW,2013-03-13 04:23:00,
2013-03-13 00:28:00,31.8,26.0,26.46,NNW,338,6.0,6.2,79,0.00,,,0.00,WUHU216HW,2013-03-13 04:28:00,
2013-03-13 00:33:00,31.8,26.0,26.46,NW,315,0.0,6.0,79,0.00,,,0.00,WUHU216HW,2013-03-13 04:33:00,
2013-03-13 00:38:00,31.8,26.0,26.46,NNW,338,0.0,6.0,79,0.00,,,0.00,WUHU216HW,2013-03-13 04:38:00,
2013-03-13 00:43:00,31.8,26.4,26.46,NNW,338,1.3,2.4,80,0.00,,,0.00,WUHU216HW,2013-03-13 04:43:00,
2013-03-13 00:48:00,31.8,26.4,26.46,NNW,338,3.5,5.3,80,0.00,,,0.00,WUHU216HW,2013-03-13 04:48:00,
2013-03-13 00:53:00,31.6,26.2,26.45,North,0,2.0,5.3,80,0.00,,,0.00,WUHU216HW,2013-03-13 04:53:00,
2013-03-13 00:58:00,31.6,26.2,26.46,NNW,338,2.9,3.5,80,0.00,,,0.00,WUHU216HW,2013-03-13 04:58:00,
2013-03-13 01:03:00,31.6,26.2,26.46,NNW,338,4.4,4.4,80,0.00,,,0.00,WUHU216HW,2013-03-13 05:03:00,
2013-03-13 01:08:00,31.6,26.2,26.46,WNW,293,5.1,5.1,80,0.00,,,0.00,WUHU216HW,2013-03-13 05:08:00,
2013-03-13 01:13:00,31.6,26.2,26.46,WNW,293,3.5,5.1,80,0.00,,,0.00,WUHU216HW,2013-03-13 05:13:00,
2013-03-13 01:18:00,31.6,26.2,26.47,WNW,293,1.5,3.8,80,0.00,,,0.00,WUHU216HW,2013-03-13 05:18:00,
2013-03-13 01:23:00,31.6,26.2,26.46,WNW,293,3.8,3.8,80,0.00,,,0.00,WUHU216HW,2013-03-13 05:23:00,
2013-03-13 01:28:00,31.6,26.2,26.47,NNW,338,5.3,5.3,80,0.00,,,0.00,WUHU216HW,2013-03-13 05:28:00,
2013-03-13 01:33:00,31.6,26.2,26.47,NNW,338,7.6,7.6,80,0.00,,,0.00,WUHU216HW,2013-03-13 05:33:00,
2013-03-13 01:38:00,31.6,26.2,26.46,NNW,338,6.4,7.6,80,0.00,,,0.00,WUHU216HW,2013-03-13 05:38:00,
2013-03-13 01:43:00,31.2,25.8,26.46,NNW,338,4.6,7.6,80,0.00,,,0.00,WUHU216HW,2013-03-13 05:43:00,
2013-03-13 01:48:00,31.2,26.1,26.46,NNW,338,4.6,7.1,81,0.00,,,0.00,WUHU216HW,2013-03-13 05:48:00,
2013-03-13 01:53:00,31.2,26.1,26.46,NW,315,4.9,5.1,81,0.00,,,0.00,WUHU216HW,2013-03-13 05:53:00,
2013-03-13 01:58:00,31.2,26.1,26.45,NW,315,6.2,6.2,81,0.00,,,0.00,WUHU216HW,2013-03-13 05:58:00,
2013-03-13 02:03:00,31.6,26.5,26.45,NW,315,6.0,6.7,81,0.00,,,0.00,WUHU216HW,2013-03-13 06:03:00,
2013-03-13 02:08:00,31.6,26.5,26.45,NW,315,7.1,7.6,81,0.00,,,0.00,WUHU216HW,2013-03-13 06:08:00,
2013-03-13 02:14:00,31.8,26.7,26.45,NNW,338,7.6,7.6,81,0.00,,,0.00,WUHU216HW,2013-03-13 06:14:00,
2013-03-13 02:19:00,32.0,26.8,26.45,NW,315,8.7,8.7,81,0.00,,,0.00,WUHU216HW,2013-03-13 06:19:00,
2013-03-13 02:24:00,32.1,27.0,26.45,NW,315,15.6,15.6,81,0.00,,,0.00,WUHU216HW,2013-03-13 06:24:00,
2013-03-13 02:29:00,32.1,27.0,26.45,NNW,338,11.8,15.6,81,0.00,,,0.00,WUHU216HW,2013-03-13 06:29:00,
2013-03-13 02:34:00,32.1,27.0,26.45,NNW,338,11.1,15.6,81,0.00,,,0.00,WUHU216HW,2013-03-13 06:34:00,
2013-03-13 02:39:00,32.5,27.0,26.44,NNW,338,18.5,18.5,80,0.00,,,0.00,WUHU216HW,2013-03-13 06:39:00,
2013-03-13 02:44:00,32.5,26.7,26.44,WNW,293,13.4,18.5,79,0.00,,,0.00,WUHU216HW,2013-03-13 06:44:00,
2013-03-13 02:49:00,32.7,26.2,26.44,NW,315,14.9,18.5,77,0.00,,,0.00,WUHU216HW,2013-03-13 06:49:00,
2013-03-13 02:54:00,32.7,25.6,26.44,WNW,293,13.6,18.5,75,0.00,,,0.00,WUHU216HW,2013-03-13 06:54:00,
2013-03-13 02:59:00,32.9,25.4,26.44,NW,315,11.6,19.2,74,0.00,,,0.00,WUHU216HW,2013-03-13 06:59:00,
2013-03-13 03:04:00,32.9,25.1,26.45,NW,315,12.3,19.2,73,0.00,,,0.00,WUHU216HW,2013-03-13 07:04:00,
2013-03-13 03:09:00,32.7,24.6,26.45,NW,315,9.1,19.9,72,0.00,,,0.00,WUHU216HW,2013-03-13 07:09:00,
2013-03-13 03:14:00,32.7,24.6,26.45,NNW,338,12.3,19.9,72,0.00,,,0.00,WUHU216HW,2013-03-13 07:14:00,
2013-03-13 03:19:00,32.7,24.6,26.45,NNW,338,11.6,12.3,72,0.00,,,0.00,WUHU216HW,2013-03-13 07:19:00,
2013-03-13 03:24:00,32.5,24.4,26.45,NW,315,12.5,12.5,72,0.00,,,0.00,WUHU216HW,2013-03-13 07:24:00,
2013-03-13 03:29:00,32.3,24.3,26.44,NW,315,14.3,14.3,72,0.00,,,0.00,WUHU216HW,2013-03-13 07:29:00,
2013-03-13 03:34:00,32.3,24.3,26.44,West,270,12.0,14.3,72,0.00,,,0.00,WUHU216HW,2013-03-13 07:34:00,
2013-03-13 03:39:00,32.1,24.1,26.44,WNW,293,14.7,14.7,72,0.00,,,0.00,WUHU216HW,2013-03-13 07:39:00,
2013-03-13 03:44:00,32.1,24.1,26.44,NW,315,7.8,14.7,72,0.00,,,0.00,WUHU216HW,2013-03-13 07:44:00,
2013-03-13 03:49:00,31.8,23.8,26.44,NW,315,12.9,14.7,72,0.00,,,0.00,WUHU216HW,2013-03-13 07:49:00,
2013-03-13 03:54:00,31.8,23.5,26.43,NNW,338,12.5,15.6,71,0.00,,,0.00,WUHU216HW,2013-03-13 07:54:00,
2013-03-13 03:59:00,31.8,23.5,26.43,NW,315,15.6,18.5,71,0.00,,,0.00,WUHU216HW,2013-03-13 07:59:00,
2013-03-13 04:04:00,31.8,23.5,26.43,NNW,338,12.5,18.5,71,0.00,,,0.00,WUHU216HW,2013-03-13 08:04:00,
2013-03-13 04:09:00,31.6,23.3,26.43,NW,315,9.3,15.6,71,0.00,,,0.00,WUHU216HW,2013-03-13 08:09:00,
2013-03-13 04:14:00,31.6,23.3,26.43,NW,315,9.3,15.6,71,0.00,,,0.00,WUHU216HW,2013-03-13 08:14:00,
2013-03-13 04:19:00,31.4,23.1,26.43,NW,315,12.5,18.5,71,0.00,,,0.00,WUHU216HW,2013-03-13 08:19:00,
2013-03-13 04:24:00,31.2,22.9,26.42,WNW,293,14.9,18.5,71,0.00,,,0.00,WUHU216HW,2013-03-13 08:24:00,
2013-03-13 04:29:00,31.2,22.9,26.42,WNW,293,13.6,14.9,71,0.00,,,0.00,WUHU216HW,2013-03-13 08:29:00,
2013-03-13 04:34:00,31.1,22.7,26.42,NNW,338,14.9,14.9,71,0.00,,,0.00,WUHU216HW,2013-03-13 08:34:00,
2013-03-13 04:39:00,31.1,22.7,26.42,NW,315,11.1,14.9,71,0.00,,,0.00,WUHU216HW,2013-03-13 08:39:00,
2013-03-13 04:44:00,30.9,22.2,26.42,NNW,338,16.7,16.7,70,0.00,,,0.00,WUHU216HW,2013-03-13 08:44:00,
2013-03-13 04:49:00,30.9,21.9,26.42,NW,315,16.1,16.7,69,0.00,,,0.00,WUHU216HW,2013-03-13 08:49:00,
2013-03-13 04:54:00,30.7,21.7,26.42,NW,315,15.8,16.1,69,0.00,,,0.00,WUHU216HW,2013-03-13 08:54:00,
2013-03-13 04:59:00,30.7,22.1,26.42,WNW,293,14.3,15.8,70,0.00,,,0.00,WUHU216HW,2013-03-13 08:59:00,
2013-03-13 05:04:00,30.7,22.1,26.42,WNW,293,14.3,15.8,70,0.00,,,0.00,WUHU216HW,2013-03-13 09:04:00,
2013-03-13 05:10:00,30.7,22.1,26.42,WNW,293,14.3,14.3,70,0.00,,,0.00,WUHU216HW,2013-03-13 09:10:00,
2013-03-13 05:15:00,30.3,21.7,26.42,WNW,293,15.2,15.2,70,0.00,,,0.00,WUHU216HW,2013-03-13 09:15:00,
2013-03-13 05:20:00,30.3,21.7,26.42,NW,315,10.0,15.2,70,0.00,,,0.00,WUHU216HW,2013-03-13 09:20:00,
2013-03-13 05:25:00,30.3,21.7,26.42,NNW,338,10.7,15.2,70,0.00,,,0.00,WUHU216HW,2013-03-13 09:25:00,
2013-03-13 05:30:00,30.0,21.5,26.42,NNW,338,12.7,13.6,70,0.00,,,0.00,WUHU216HW,2013-03-13 09:30:00,
2013-03-13 05:35:00,30.0,21.3,26.42,NW,315,13.1,13.6,70,0.00,,,0.00,WUHU216HW,2013-03-13 09:35:00,
2013-03-13 05:40:00,30.0,21.3,26.42,NW,315,12.3,13.1,70,0.00,,,0.00,WUHU216HW,2013-03-13 09:40:00,
2013-03-13 05:45:00,30.0,21.3,26.42,NW,315,7.1,13.1,70,0.00,,,0.00,WUHU216HW,2013-03-13 09:45:00,
2013-03-13 05:50:00,30.0,21.3,26.42,WNW,293,9.3,11.1,70,0.00,,,0.00,WUHU216HW,2013-03-13 09:50:00,
2013-03-13 05:55:00,30.0,21.3,26.42,WNW,293,7.1,9.3,70,0.00,,,0.00,WUHU216HW,2013-03-13 09:55:00,
2013-03-13 06:00:00,29.8,21.2,26.42,NW,315,10.0,10.0,70,0.00,,,0.00,WUHU216HW,2013-03-13 10:00:00,
2013-03-13 06:05:00,29.8,21.2,26.42,NW,315,8.2,10.0,70,0.00,,,0.00,WUHU216HW,2013-03-13 10:05:00,
2013-03-13 06:10:00,29.6,21.0,26.42,NW,315,6.7,10.5,70,0.00,,,0.00,WUHU216HW,2013-03-13 10:10:00,
2013-03-13 06:15:00,29.4,20.9,26.42,WNW,293,12.3,12.3,70,0.00,,,0.00,WUHU216HW,2013-03-13 10:15:00,
2013-03-13 06:20:00,29.4,20.9,26.42,NW,315,10.7,12.3,70,0.00,,,0.00,WUHU216HW,2013-03-13 10:20:00,
2013-03-13 06:25:00,29.4,21.2,26.42,NW,315,12.3,12.3,71,0.00,,,0.00,WUHU216HW,2013-03-13 10:25:00,
2013-03-13 06:30:00,29.3,21.0,26.42,WNW,293,7.3,12.3,71,0.00,,,0.00,WUHU216HW,2013-03-13 10:30:00,
2013-03-13 06:35:00,29.1,20.8,26.42,NW,315,6.9,12.3,71,0.00,,,0.00,WUHU216HW,2013-03-13 10:35:00,
2013-03-13 06:40:00,29.1,20.8,26.43,NW,315,5.3,8.2,71,0.00,,,0.00,WUHU216HW,2013-03-13 10:40:00,
2013-03-13 06:45:00,29.1,20.8,26.43,WNW,293,8.7,8.7,71,0.00,,,0.00,WUHU216HW,2013-03-13 10:45:00,
2013-03-13 06:50:00,28.9,21.0,26.43,NW,315,6.9,8.7,72,0.00,,,0.00,WUHU216HW,2013-03-13 10:50:00,
2013-03-13 06:55:00,28.9,21.0,26.43,NW,315,8.0,8.7,72,0.00,,,0.00,WUHU216HW,2013-03-13 10:55:00,
2013-03-13 07:00:00,28.9,21.0,26.43,NNW,338,6.9,11.4,72,0.00,,,0.00,WUHU216HW,2013-03-13 11:00:00,
2013-03-13 07:05:00,28.9,21.0,26.43,WNW,293,6.2,11.4,72,0.00,,,0.00,WUHU216HW,2013-03-13 11:05:00,
2013-03-13 07:10:00,28.9,21.0,26.43,West,270,7.8,8.7,72,0.00,,,0.00,WUHU216HW,2013-03-13 11:10:00,
2013-03-13 07:15:00,28.7,21.1,26.43,West,270,7.3,7.8,73,0.00,,,0.00,WUHU216HW,2013-03-13 11:15:00,
2013-03-13 07:20:00,28.7,21.1,26.43,NW,315,4.0,7.3,73,0.00,,,0.00,WUHU216HW,2013-03-13 11:20:00,
2013-03-13 07:25:00,28.7,21.1,26.43,WNW,293,0.0,7.3,73,0.00,,,0.00,WUHU216HW,2013-03-13 11:25:00,
2013-03-13 07:30:00,28.7,21.1,26.43,WNW,293,4.9,7.1,73,0.00,,,0.00,WUHU216HW,2013-03-13 11:30:00,
2013-03-13 07:35:00,28.7,21.1,26.43,West,270,0.0,7.1,73,0.00,,,0.00,WUHU216HW,2013-03-13 11:35:00,
2013-03-13 07:40:00,28.7,21.1,26.43,NW,315,5.1,5.1,73,0.00,,,0.00,WUHU216HW,2013-03-13 11:40:00,
2013-03-13 07:45:00,28.7,21.1,26.43,West,270,4.2,5.1,73,0.00,,,0.00,WUHU216HW,2013-03-13 11:45:00,
2013-03-13 07:50:00,28.5,21.3,26.43,WNW,293,0.0,5.5,74,0.00,,,0.00,WUHU216HW,2013-03-13 11:50:00,
2013-03-13 07:55:00,28.7,21.4,26.43,WNW,293,0.0,5.5,74,0.00,,,0.00,WUHU216HW,2013-03-13 11:55:00,
2013-03-13 08:00:00,28.7,21.4,26.43,West,270,2.0,4.0,74,0.00,,,0.00,WUHU216HW,2013-03-13 12:00:00,
2013-03-13 08:05:00,28.7,21.4,26.43,WNW,293,4.6,4.6,74,0.00,,,0.00,WUHU216HW,2013-03-13 12:05:00,
2013-03-13 08:10:00,28.7,21.4,26.43,NW,315,3.3,4.6,74,0.00,,,0.00,WUHU216HW,2013-03-13 12:10:00,
2013-03-13 08:15:00,28.7,21.4,26.43,WNW,293,6.4,6.4,74,0.00,,,0.00,WUHU216HW,2013-03-13 12:15:00,
2013-03-13 08:20:00,28.7,21.4,26.43,WNW,293,4.9,6.4,74,0.00,,,0.00,WUHU216HW,2013-03-13 12:20:00,
2013-03-13 08:25:00,28.7,21.4,26.43,NW,315,3.8,6.4,74,0.00,,,0.00,WUHU216HW,2013-03-13 12:25:00,
2013-03-13 08:30:00,28.7,21.4,26.44,WNW,293,0.0,4.9,74,0.00,,,0.00,WUHU216HW,2013-03-13 12:30:00,
2013-03-13 08:35:00,28.7,21.4,26.44,NW,315,0.0,3.5,74,0.00,,,0.00,WUHU216HW,2013-03-13 12:35:00,
2013-03-13 08:40:00,28.9,21.6,26.44,NW,315,2.2,2.2,74,0.00,,,0.00,WUHU216HW,2013-03-13 12:40:00,
2013-03-13 08:45:00,29.1,21.8,26.44,WNW,293,4.2,4.2,74,0.00,,,0.00,WUHU216HW,2013-03-13 12:45:00,
2013-03-13 08:50:00,29.3,22.0,26.44,NW,315,3.3,10.9,74,0.00,,,0.00,WUHU216HW,2013-03-13 12:50:00,
2013-03-13 08:55:00,29.4,22.1,26.44,WNW,293,0.0,10.9,74,0.00,,,0.00,WUHU216HW,2013-03-13 12:55:00,
2013-03-13 09:01:00,29.6,22.6,26.45,West,270,2.9,3.3,75,0.00,,,0.00,WUHU216HW,2013-03-13 13:01:00,
2013-03-13 09:06:00,29.6,22.6,26.44,WNW,293,3.8,6.9,75,0.00,,,0.00,WUHU216HW,2013-03-13 13:06:00,
2013-03-13 09:11:00,29.8,22.8,26.45,WSW,248,1.5,6.9,75,0.00,,,0.00,WUHU216HW,2013-03-13 13:11:00,
2013-03-13 09:16:00,29.6,22.9,26.44,WSW,248,0.0,5.5,76,0.00,,,0.00,WUHU216HW,2013-03-13 13:16:00,
2013-03-13 09:21:00,29.8,23.1,26.45,West,270,0.0,1.5,76,0.00,,,0.00,WUHU216HW,2013-03-13 13:21:00,
2013-03-13 09:26:00,29.6,22.9,26.45,WSW,248,0.6,8.9,76,0.00,,,0.00,WUHU216HW,2013-03-13 13:26:00,
2013-03-13 09:31:00,29.4,23.1,26.45,NW,315,0.0,8.9,77,0.00,,,0.00,WUHU216HW,2013-03-13 13:31:00,
2013-03-13 09:36:00,29.4,23.1,26.45,West,270,0.0,5.5,77,0.00,,,0.00,WUHU216HW,2013-03-13 13:36:00,
2013-03-13 09:41:00,29.4,23.1,26.45,WNW,293,6.9,6.9,77,0.00,,,0.00,WUHU216HW,2013-03-13 13:41:00,
2013-03-13 09:46:00,29.3,22.9,26.45,West,270,5.8,6.9,77,0.00,,,0.00,WUHU216HW,2013-03-13 13:46:00,
2013-03-13 09:51:00,29.3,23.2,26.45,West,270,3.8,7.1,78,0.00,,,0.00,WUHU216HW,2013-03-13 13:51:00,
2013-03-13 09:56:00,29.4,23.7,26.45,WNW,293,9.8,9.8,79,0.00,,,0.00,WUHU216HW,2013-03-13 13:56:00,
2013-03-13 10:01:00,29.6,23.9,26.45,WNW,293,6.7,9.8,79,0.00,,,0.00,WUHU216HW,2013-03-13 14:01:00,
2013-03-13 10:06:00,29.6,23.9,26.45,West,270,0.0,9.8,79,0.00,,,0.00,WUHU216HW,2013-03-13 14:06:00,
2013-03-13 10:11:00,29.6,23.9,26.45,NW,315,5.3,8.7,79,0.00,,,0.00,WUHU216HW,2013-03-13 14:11:00,
2013-03-13 10:17:00,29.6,23.9,26.45,WNW,293,8.2,8.7,79,0.00,,,0.00,WUHU216HW,2013-03-13 14:17:00,
2013-03-13 10:22:00,29.6,23.9,26.45,NW,315,6.4,8.2,79,0.00,,,0.00,WUHU216HW,2013-03-13 14:22:00,
2013-03-13 10:27:00,29.6,23.9,26.45,NW,315,7.1,9.3,79,0.00,,,0.00,WUHU216HW,2013-03-13 14:27:00,
2013-03-13 10:32:00,29.6,23.9,26.45,NW,315,6.7,9.3,79,0.00,,,0.00,WUHU216HW,2013-03-13 14:32:00,
2013-03-13 10:37:00,29.6,23.9,26.45,WNW,293,9.1,14.3,79,0.00,,,0.00,WUHU216HW,2013-03-13 14:37:00,
2013-03-13 10:42:00,29.8,24.1,26.45,NW,315,11.8,14.3,79,0.00,,,0.00,WUHU216HW,2013-03-13 14:42:00,
2013-03-13 10:47:00,30.0,24.2,26.45,West,270,6.9,18.1,79,0.00,,,0.00,WUHU216HW,2013-03-13 14:47:00,
2013-03-13 10:52:00,30.2,24.4,26.45,WNW,293,10.7,18.1,79,0.00,,,0.00,WUHU216HW,2013-03-13 14:52:00,
2013-03-13 10:57:00,30.2,24.4,26.45,WSW,248,10.2,10.7,79,0.00,,,0.00,WUHU216HW,2013-03-13 14:57:00,
2013-03-13 11:02:00,30.0,24.2,26.45,WNW,293,8.0,11.1,79,0.00,,,0.00,WUHU216HW,2013-03-13 15:02:00,
2013-03-13 11:07:00,30.0,24.2,26.45,NW,315,10.0,11.1,79,0.00,,,0.00,WUHU216HW,2013-03-13 15:07:00,
2013-03-13 11:12:00,30.0,24.2,26.45,NNW,338,10.7,10.7,79,0.00,,,0.00,WUHU216HW,2013-03-13 15:12:00,
2013-03-13 11:17:00,30.0,24.2,26.45,NW,315,14.7,15.2,79,0.00,,,0.00,WUHU216HW,2013-03-13 15:17:00,
2013-03-13 11:22:00,30.0,23.9,26.45,WNW,293,15.6,15.6,78,0.00,,,0.00,WUHU216HW,2013-03-13 15:22:00,
2013-03-13 11:27:00,30.0,23.9,26.45,WNW,293,9.3,15.6,78,0.00,,,0.00,WUHU216HW,2013-03-13 15:27:00,
2013-03-13 11:32:00,30.2,23.8,26.45,West,270,10.9,15.6,77,0.00,,,0.00,WUHU216HW,2013-03-13 15:32:00,
2013-03-13 11:37:00,30.5,24.1,26.45,WNW,293,7.6,10.9,77,0.00,,,0.00,WUHU216HW,2013-03-13 15:37:00,
2013-03-13 11:42:00,30.7,24.3,26.44,West,270,16.3,16.3,77,0.00,,,0.00,WUHU216HW,2013-03-13 15:42:00,
2013-03-13 11:47:00,30.9,24.2,26.45,NW,315,10.0,16.3,76,0.00,,,0.00,WUHU216HW,2013-03-13 15:47:00,
2013-03-13 11:52:00,31.1,24.0,26.45,NW,315,10.2,12.3,75,0.00,,,0.00,WUHU216HW,2013-03-13 15:52:00,
2013-03-13 11:58:00,31.2,24.2,26.44,WNW,293,8.7,12.0,75,0.00,,,0.00,WUHU216HW,2013-03-13 15:58:00,
2013-03-13 12:03:00,31.2,23.2,26.43,NW,315,19.4,19.4,72,0.00,,,0.00,WUHU216HW,2013-03-13 16:03:00,
2013-03-13 12:08:00,31.2,22.9,26.43,WNW,293,13.6,19.4,71,0.00,,,0.00,WUHU216HW,2013-03-13 16:08:00,
2013-03-13 12:13:00,31.1,22.4,26.44,NNW,338,10.5,15.6,70,0.00,,,0.00,WUHU216HW,2013-03-13 16:13:00,
2013-03-13 12:18:00,31.1,22.4,26.45,NNW,338,0.0,13.1,70,0.00,,,0.00,WUHU216HW,2013-03-13 16:18:00,
2013-03-13 12:23:00,31.2,22.9,26.45,West,270,6.7,11.8,71,0.00,,,0.00,WUHU216HW,2013-03-13 16:23:00,
2013-03-13 12:28:00,31.1,23.4,26.45,NW,315,7.3,11.8,73,0.00,,,0.00,WUHU216HW,2013-03-13 16:28:00,
2013-03-13 12:33:00,30.9,23.9,26.45,West,270,10.7,10.7,75,0.00,,,0.00,WUHU216HW,2013-03-13 16:33:00,
2013-03-13 12:38:00,30.7,23.7,26.44,WNW,293,8.2,10.7,75,0.00,,,0.00,WUHU216HW,2013-03-13 16:38:00,
2013-03-13 12:43:00,30.7,23.7,26.44,WNW,293,8.2,8.2,75,0.00,,,0.00,WUHU216HW,2013-03-13 16:43:00,
2013-03-13 12:48:00,30.0,23.9,26.44,WNW,293,13.1,13.1,78,0.00,,,0.00,WUHU216HW,2013-03-13 16:48:00,
2013-03-13 12:53:00,29.8,24.1,26.45,West,270,12.7,13.1,79,0.00,,,0.00,WUHU216HW,2013-03-13 16:53:00,
2013-03-13 12:58:00,29.4,23.7,26.43,NW,315,10.0,12.9,79,0.00,,,0.00,WUHU216HW,2013-03-13 16:58:00,
2013-03-13 13:03:00,29.4,23.7,26.45,North,0,11.4,16.7,79,0.00,,,0.00,WUHU216HW,2013-03-13 17:03:00,
2013-03-13 13:08:00,29.8,24.1,26.44,NNW,338,8.7,16.7,79,0.00,,,0.00,WUHU216HW,2013-03-13 17:08:00,
2013-03-13 13:13:00,30.3,24.3,26.44,NW,315,11.1,12.5,78,0.00,,,0.00,WUHU216HW,2013-03-13 17:13:00,
2013-03-13 13:18:00,30.7,24.6,26.44,WNW,293,18.5,18.5,78,0.00,,,0.00,WUHU216HW,2013-03-13 17:18:00,
2013-03-13 13:23:00,30.9,24.2,26.43,WNW,293,10.5,22.8,76,0.00,,,0.00,WUHU216HW,2013-03-13 17:23:00,
2013-03-13 13:28:00,30.9,23.9,26.44,NW,315,10.9,22.8,75,0.00,,,0.00,WUHU216HW,2013-03-13 17:28:00,
2013-03-13 13:33:00,30.9,23.9,26.43,NW,315,14.0,20.3,75,0.00,,,0.00,WUHU216HW,2013-03-13 17:33:00,
2013-03-13 13:38:00,30.7,23.7,26.43,NW,315,9.3,22.1,75,0.00,,,0.00,WUHU216HW,2013-03-13 17:38:00,
2013-03-13 13:43:00,30.5,23.8,26.44,WNW,293,14.3,22.1,76,0.00,,,0.00,WUHU216HW,2013-03-13 17:43:00,
2013-03-13 13:48:00,30.0,23.3,26.44,NW,315,16.1,16.1,76,0.00,,,0.00,WUHU216HW,2013-03-13 17:48:00,
2013-03-13 13:53:00,30.0,23.3,26.44,NNW,338,8.5,16.1,76,0.00,,,0.00,WUHU216HW,2013-03-13 17:53:00,
2013-03-13 13:58:00,30.0,23.6,26.44,NW,315,12.5,16.7,77,0.00,,,0.00,WUHU216HW,2013-03-13 17:58:00,
2013-03-13 14:03:00,30.0,23.6,26.43,NW,315,12.3,16.7,77,0.00,,,0.00,WUHU216HW,2013-03-13 18:03:00,
2013-03-13 14:08:00,30.2,23.8,26.43,NNW,338,12.7,12.7,77,0.00,,,0.00,WUHU216HW,2013-03-13 18:08:00,
2013-03-13 14:13:00,30.5,23.5,26.43,West,270,12.0,12.7,75,0.00,,,0.00,WUHU216HW,2013-03-13 18:13:00,
2013-03-13 14:18:00,31.1,23.7,26.43,WNW,293,10.9,13.6,74,0.00,,,0.00,WUHU216HW,2013-03-13 18:18:00,
2013-03-13 14:23:00,31.2,23.2,26.42,NW,315,16.1,16.1,72,0.00,,,0.00,WUHU216HW,2013-03-13 18:23:00,
2013-03-13 14:28:00,31.2,22.9,26.43,NW,315,10.7,16.1,71,0.00,,,0.00,WUHU216HW,2013-03-13 18:28:00,
2013-03-13 14:33:00,31.6,22.2,26.42,NW,315,19.9,19.9,68,0.00,,,0.00,WUHU216HW,2013-03-13 18:33:00,
2013-03-13 14:38:00,31.2,20.4,26.43,NW,315,16.7,19.9,64,0.00,,,0.00,WUHU216HW,2013-03-13 18:38:00,
2013-03-13 14:43:00,31.2,20.4,26.43,WNW,293,14.9,19.9,64,0.00,,,0.00,WUHU216HW,2013-03-13 18:43:00,
2013-03-13 14:48:00,31.2,20.4,26.43,NW,315,10.0,18.5,64,0.00,,,0.00,WUHU216HW,2013-03-13 18:48:00,
2013-03-13 14:54:00,31.6,20.4,26.43,NW,315,10.9,16.3,63,0.00,,,0.00,WUHU216HW,2013-03-13 18:54:00,
2013-03-13 14:59:00,31.8,20.6,26.43,NNW,338,12.7,17.0,63,0.00,,,0.00,WUHU216HW,2013-03-13 18:59:00,
2013-03-13 15:04:00,31.8,20.6,26.43,WNW,293,19.6,19.6,63,0.00,,,0.00,WUHU216HW,2013-03-13 19:04:00,
2013-03-13 15:09:00,32.1,20.6,26.43,NW,315,15.4,22.3,62,0.00,,,0.00,WUHU216HW,2013-03-13 19:09:00,
2013-03-13 15:14:00,32.1,20.2,26.42,WNW,293,21.0,23.0,61,0.00,,,0.00,WUHU216HW,2013-03-13 19:14:00,
2013-03-13 15:19:00,31.8,19.5,26.43,NW,315,11.6,23.0,60,0.00,,,0.00,WUHU216HW,2013-03-13 19:19:00,
2013-03-13 15:24:00,31.6,19.4,26.43,NW,315,18.1,25.5,60,0.00,,,0.00,WUHU216HW,2013-03-13 19:24:00,
2013-03-13 15:29:00,31.2,19.0,26.43,NW,315,9.6,25.5,60,0.00,,,0.00,WUHU216HW,2013-03-13 19:29:00,
2013-03-13 15:34:00,31.2,18.6,26.44,WNW,293,22.3,22.3,59,0.00,,,0.00,WUHU216HW,2013-03-13 19:34:00,
2013-03-13 15:39:00,31.1,18.8,26.44,NNW,338,17.6,22.3,60,0.00,,,0.00,WUHU216HW,2013-03-13 19:39:00,
2013-03-13 15:44:00,30.7,18.5,26.44,WNW,293,9.6,17.6,60,0.00,,,0.00,WUHU216HW,2013-03-13 19:44:00,
2013-03-13 15:49:00,30.9,19.0,26.44,NW,315,10.0,11.1,61,0.00,,,0.00,WUHU216HW,2013-03-13 19:49:00,
2013-03-13 15:54:00,30.9,19.0,26.44,WNW,293,12.7,14.7,61,0.00,,,0.00,WUHU216HW,2013-03-13 19:54:00,
2013-03-13 15:59:00,30.9,19.0,26.44,NW,315,9.3,14.7,61,0.00,,,0.00,WUHU216HW,2013-03-13 19:59:00,
2013-03-13 16:04:00,30.7,18.5,26.44,NNW,338,18.1,18.1,60,0.00,,,0.00,WUHU216HW,2013-03-13 20:04:00,
2013-03-13 16:09:00,30.5,18.3,26.44,WNW,293,14.9,18.1,60,0.00,,,0.00,WUHU216HW,2013-03-13 20:09:00,
2013-03-13 16:14:00,30.5,18.3,26.43,WNW,293,11.1,20.3,60,0.00,,,0.00,WUHU216HW,2013-03-13 20:14:00,
2013-03-13 16:19:00,30.7,18.8,26.43,NNW,338,19.0,20.3,61,0.00,,,0.00,WUHU216HW,2013-03-13 20:19:00,
2013-03-13 16:24:00,30.7,18.5,26.43,WNW,293,19.2,23.4,60,0.00,,,0.00,WUHU216HW,2013-03-13 20:24:00,
2013-03-13 16:29:00,30.7,18.5,26.43,WNW,293,12.5,23.4,60,0.00,,,0.00,WUHU216HW,2013-03-13 20:29:00,
2013-03-13 16:34:00,30.9,17.8,26.44,West,270,18.1,22.1,58,0.00,,,0.00,WUHU216HW,2013-03-13 20:34:00,
2013-03-13 16:39:00,30.9,17.8,26.44,NNW,338,14.5,20.8,58,0.00,,,0.00,WUHU216HW,2013-03-13 20:39:00,
2013-03-13 16:44:00,30.9,17.8,26.44,West,270,14.7,20.8,58,0.00,,,0.00,WUHU216HW,2013-03-13 20:44:00,
2013-03-13 16:49:00,31.1,17.4,26.45,WNW,293,7.3,17.0,57,0.00,,,0.00,WUHU216HW,2013-03-13 20:49:00,
2013-03-13 16:54:00,30.9,17.8,26.44,NW,315,19.6,19.6,58,0.00,,,0.00,WUHU216HW,2013-03-13 20:54:00,
2013-03-13 16:59:00,30.7,18.0,26.45,West,270,13.6,19.6,59,0.00,,,0.00,WUHU216HW,2013-03-13 20:59:00,
2013-03-13 17:04:00,30.7,17.6,26.45,WSW,248,14.5,25.7,58,0.00,,,0.00,WUHU216HW,2013-03-13 21:04:00,
2013-03-13 17:09:00,30.9,18.2,26.45,NW,315,7.8,25.7,59,0.00,,,0.00,WUHU216HW,2013-03-13 21:09:00,
2013-03-13 17:14:00,30.7,17.6,26.45,WNW,293,20.1,20.1,58,0.00,,,0.00,WUHU216HW,2013-03-13 21:14:00,
2013-03-13 17:19:00,30.3,17.7,26.45,WNW,293,16.3,20.1,59,0.00,,,0.00,WUHU216HW,2013-03-13 21:19:00,
2013-03-13 17:24:00,30.0,17.3,26.46,WNW,293,12.5,20.1,59,0.00,,,0.00,WUHU216HW,2013-03-13 21:24:00,
2013-03-13 17:29:00,30.0,17.3,26.46,WNW,293,12.3,15.4,59,0.00,,,0.00,WUHU216HW,2013-03-13 21:29:00,
2013-03-13 17:34:00,30.0,17.3,26.47,NW,315,11.6,12.5,59,0.00,,,0.00,WUHU216HW,2013-03-13 21:34:00,
2013-03-13 17:39:00,29.8,16.8,26.47,NW,315,9.6,15.2,58,0.00,,,0.00,WUHU216HW,2013-03-13 21:39:00,
2013-03-13 17:44:00,29.8,16.8,26.47,NW,315,13.6,15.2,58,0.00,,,0.00,WUHU216HW,2013-03-13 21:44:00,
2013-03-13 17:49:00,29.3,16.3,26.47,NNW,338,21.4,21.4,58,0.00,,,0.00,WUHU216HW,2013-03-13 21:49:00,
2013-03-13 17:54:00,29.1,16.1,26.47,NW,315,12.5,21.4,58,0.00,,,0.00,WUHU216HW,2013-03-13 21:54:00,
2013-03-13 17:59:00,29.1,16.5,26.48,West,270,7.3,12.7,59,0.00,,,0.00,WUHU216HW,2013-03-13 21:59:00,
2013-03-13 18:04:00,29.1,16.1,26.47,West,270,11.8,12.5,58,0.00,,,0.00,WUHU216HW,2013-03-13 22:04:00,
2013-03-13 18:09:00,29.1,16.1,26.47,West,270,12.3,16.7,58,0.00,,,0.00,WUHU216HW,2013-03-13 22:09:00,
2013-03-13 18:14:00,28.9,15.9,26.47,NNW,338,15.6,19.9,58,0.00,,,0.00,WUHU216HW,2013-03-13 22:14:00,
2013-03-13 18:20:00,28.7,15.8,26.47,NW,315,18.1,19.9,58,0.00,,,0.00,WUHU216HW,2013-03-13 22:20:00,
2013-03-13 18:25:00,28.5,15.6,26.47,NNW,338,15.2,19.0,58,0.00,,,0.00,WUHU216HW,2013-03-13 22:25:00,
2013-03-13 18:30:00,28.5,15.6,26.47,NNW,338,11.8,17.0,58,0.00,,,0.00,WUHU216HW,2013-03-13 22:30:00,
2013-03-13 18:35:00,28.5,15.6,26.46,NW,315,24.8,24.8,58,0.00,,,0.00,WUHU216HW,2013-03-13 22:35:00,
2013-03-13 18:40:00,28.2,15.7,26.46,West,270,17.8,24.8,59,0.00,,,0.00,WUHU216HW,2013-03-13 22:40:00,
2013-03-13 18:45:00,28.2,15.7,26.46,WNW,293,21.6,27.7,59,0.00,,,0.00,WUHU216HW,2013-03-13 22:45:00,
2013-03-13 18:50:00,28.0,15.5,26.46,WNW,293,20.3,27.7,59,0.00,,,0.00,WUHU216HW,2013-03-13 22:50:00,
2013-03-13 18:55:00,28.0,15.5,26.47,NNW,338,11.1,21.6,59,0.00,,,0.00,WUHU216HW,2013-03-13 22:55:00,
2013-03-13 19:00:00,28.0,15.9,26.47,NW,315,17.6,24.1,60,0.00,,,0.00,WUHU216HW,2013-03-13 23:00:00,
2013-03-13 19:05:00,27.6,16.3,26.46,NNW,338,22.1,24.1,62,0.00,,,0.00,WUHU216HW,2013-03-13 23:05:00,
2013-03-13 19:10:00,27.5,16.5,26.47,NW,315,17.0,23.7,63,0.00,,,0.00,WUHU216HW,2013-03-13 23:10:00,
2013-03-13 19:15:00,27.1,16.8,26.47,NNW,338,19.9,25.9,65,0.00,,,0.00,WUHU216HW,2013-03-13 23:15:00,
2013-03-13 19:20:00,26.9,16.8,26.47,NW,315,17.0,25.9,66,0.00,,,0.00,WUHU216HW,2013-03-13 23:20:00,
2013-03-13 19:25:00,26.6,16.7,26.46,NW,315,23.7,23.7,66,0.00,,,0.00,WUHU216HW,2013-03-13 23:25:00,
2013-03-13 19:30:00,26.4,16.8,26.47,NW,315,18.1,26.6,67,0.00,,,0.00,WUHU216HW,2013-03-13 23:30:00,
2013-03-13 19:35:00,26.2,16.7,26.46,WNW,293,25.5,26.6,67,0.00,,,0.00,WUHU216HW,2013-03-13 23:35:00,
2013-03-13 19:40:00,26.2,17.0,26.46,NW,315,19.9,25.5,68,0.00,,,0.00,WUHU216HW,2013-03-13 23:40:00,
2013-03-13 19:45:00,26.0,16.8,26.47,WNW,293,19.0,24.6,68,0.00,,,0.00,WUHU216HW,2013-03-13 23:45:00,
2013-03-13 19:50:00,26.2,17.0,26.46,NW,315,21.9,21.9,68,0.00,,,0.00,WUHU216HW,2013-03-13 23:50:00,
2013-03-13 19:55:00,26.0,16.8,26.47,NW,315,22.8,22.8,68,0.00,,,0.00,WUHU216HW,2013-03-13 23:55:00,
2013-03-13 20:00:00,26.0,16.5,26.47,NW,315,19.2,22.8,67,0.00,,,0.00,WUHU216HW,2013-03-14 00:00:00,
2013-03-13 20:05:00,26.0,16.1,26.47,NNW,338,19.0,27.0,66,0.00,,,0.00,WUHU216HW,2013-03-14 00:05:00,
2013-03-13 20:10:00,25.8,15.9,26.48,NW,315,22.3,27.0,66,0.00,,,0.00,WUHU216HW,2013-03-14 00:10:00,
2013-03-13 20:16:00,25.8,15.9,26.48,NW,315,16.5,25.0,66,0.00,,,0.00,WUHU216HW,2013-03-14 00:16:00,
2013-03-13 20:21:00,25.8,16.3,26.48,NW,315,15.8,24.8,67,0.00,,,0.00,WUHU216HW,2013-03-14 00:21:00,
2013-03-13 20:26:00,25.7,15.8,26.48,NNW,338,16.7,20.3,66,0.00,,,0.00,WUHU216HW,2013-03-14 00:26:00,
2013-03-13 20:31:00,25.5,15.6,26.48,NW,315,21.4,21.4,66,0.00,,,0.00,WUHU216HW,2013-03-14 00:31:00,
2013-03-13 20:36:00,25.5,15.6,26.48,NNW,338,21.9,22.8,66,0.00,,,0.00,WUHU216HW,2013-03-14 00:36:00,
2013-03-13 20:41:00,25.3,15.4,26.48,NW,315,17.0,22.8,66,0.00,,,0.00,WUHU216HW,2013-03-14 00:41:00,
2013-03-13 20:46:00,25.1,15.3,26.48,NW,315,21.2,21.9,66,0.00,,,0.00,WUHU216HW,2013-03-14 00:46:00,
2013-03-13 20:51:00,24.9,15.1,26.48,North,0,21.2,23.4,66,0.00,,,0.00,WUHU216HW,2013-03-14 00:51:00,
2013-03-13 20:57:00,24.6,14.7,26.47,NNW,338,29.3,29.3,66,0.00,,,0.00,WUHU216HW,2013-03-14 00:57:00,
2013-03-13 21:02:00,24.6,14.7,26.48,NW,315,20.5,29.3,66,0.00,,,0.00,WUHU216HW,2013-03-14 01:02:00,
2013-03-13 21:07:00,24.4,14.6,26.48,NW,315,19.4,28.8,66,0.00,,,0.00,WUHU216HW,2013-03-14 01:07:00,
2013-03-13 21:12:00,24.4,14.6,26.48,NW,315,19.9,21.2,66,0.00,,,0.00,WUHU216HW,2013-03-14 01:12:00,
2013-03-13 21:17:00,24.0,14.2,26.48,NW,315,26.6,26.6,66,0.00,,,0.00,WUHU216HW,2013-03-14 01:17:00,
2013-03-13 21:22:00,23.9,14.1,26.48,NW,315,22.3,26.6,66,0.00,,,0.00,WUHU216HW,2013-03-14 01:22:00,
2013-03-13 21:27:00,23.9,14.1,26.48,WNW,293,19.4,26.3,66,0.00,,,0.00,WUHU216HW,2013-03-14 01:27:00,
2013-03-13 21:32:00,23.7,14.3,26.48,NNW,338,22.1,25.5,67,0.00,,,0.00,WUHU216HW,2013-03-14 01:32:00,
2013-03-13 21:37:00,23.5,14.1,26.48,NW,315,19.0,25.5,67,0.00,,,0.00,WUHU216HW,2013-03-14 01:37:00,
2013-03-13 21:42:00,23.5,14.1,26.48,WNW,293,19.4,23.9,67,0.00,,,0.00,WUHU216HW,2013-03-14 01:42:00,
2013-03-13 21:47:00,23.5,14.1,26.48,North,0,21.2,24.8,67,0.00,,,0.00,WUHU216HW,2013-03-14 01:47:00,
2013-03-13 21:52:00,23.5,14.1,26.49,North,0,19.9,24.8,67,0.00,,,0.00,WUHU216HW,2013-03-14 01:52:00,
2013-03-13 21:57:00,23.3,13.9,26.49,NW,315,21.9,30.4,67,0.00,,,0.00,WUHU216HW,2013-03-14 01:57:00,
2013-03-13 22:02:00,23.1,13.8,26.49,NW,315,25.0,30.4,67,0.00,,,0.00,WUHU216HW,2013-03-14 02:02:00,
2013-03-13 22:07:00,23.1,13.8,26.49,NW,315,19.9,25.2,67,0.00,,,0.00,WUHU216HW,2013-03-14 02:07:00,
2013-03-13 22:12:00,23.0,13.6,26.49,NNW,338,21.6,24.6,67,0.00,,,0.00,WUHU216HW,2013-03-14 02:12:00,
2013-03-13 22:17:00,23.0,13.6,26.48,NNW,338,21.4,21.6,67,0.00,,,0.00,WUHU216HW,2013-03-14 02:17:00,
2013-03-13 22:22:00,22.8,13.8,26.49,NW,315,19.0,21.4,68,0.00,,,0.00,WUHU216HW,2013-03-14 02:22:00,
2013-03-13 22:27:00,22.8,13.8,26.49,NW,315,21.4,30.4,68,0.00,,,0.00,WUHU216HW,2013-03-14 02:27:00,
2013-03-13 22:32:00,22.8,13.8,26.49,NW,315,25.7,30.4,68,0.00,,,0.00,WUHU216HW,2013-03-14 02:32:00,
2013-03-13 22:37:00,22.8,13.8,26.49,NW,315,20.8,27.0,68,0.00,,,0.00,WUHU216HW,2013-03-14 02:37:00,
2013-03-13 22:42:00,22.8,14.1,26.49,NW,315,21.0,25.2,69,0.00,,,0.00,WUHU216HW,2013-03-14 02:42:00,
2013-03-13 22:47:00,22.6,14.0,26.49,NW,315,19.9,25.2,69,0.00,,,0.00,WUHU216HW,2013-03-14 02:47:00,
2013-03-13 22:52:00,22.4,13.4,26.50,NW,315,20.8,25.0,68,0.00,,,0.00,WUHU216HW,2013-03-14 02:52:00,
2013-03-13 22:57:00,22.2,13.6,26.50,NNW,338,22.3,26.8,69,0.00,,,0.00,WUHU216HW,2013-03-14 02:57:00,
2013-03-13 23:02:00,22.2,13.6,26.50,NNW,338,19.6,26.8,69,0.00,,,0.00,WUHU216HW,2013-03-14 03:02:00,
2013-03-13 23:07:00,22.2,13.6,26.50,WNW,293,20.1,23.9,69,0.00,,,0.00,WUHU216HW,2013-03-14 03:07:00,
2013-03-13 23:13:00,22.1,13.4,26.50,NW,315,19.6,26.1,69,0.00,,,0.00,WUHU216HW,2013-03-14 03:13:00,
2013-03-13 23:18:00,21.9,13.2,26.50,WNW,293,21.6,29.7,69,0.00,,,0.00,WUHU216HW,2013-03-14 03:18:00,
2013-03-13 23:23:00,21.9,12.9,26.50,NNW,338,22.1,29.9,68,0.00,,,0.00,WUHU216HW,2013-03-14 03:23:00,
2013-03-13 23:28:00,21.9,12.9,26.49,NW,315,22.1,29.9,68,0.00,,,0.00,WUHU216HW,2013-03-14 03:28:00,
2013-03-13 23:33:00,21.7,12.7,26.49,NW,315,29.5,29.7,68,0.00,,,0.00,WUHU216HW,2013-03-14 03:33:00,
2013-03-13 23:38:00,21.7,12.7,26.49,NNW,338,18.5,29.5,68,0.00,,,0.00,WUHU216HW,2013-03-14 03:38:00,
2013-03-13 23:43:00,21.7,12.7,26.49,NNW,338,18.7,27.0,68,0.00,,,0.00,WUHU216HW,2013-03-14 03:43:00,
2013-03-13 23:48:00,21.7,12.7,26.49,NW,315,19.9,25.0,68,0.00,,,0.00,WUHU216HW,2013-03-14 03:48:00,
2013-03-13 23:53:00,21.5,12.5,26.49,NW,315,19.0,26.1,68,0.00,,,0.00,WUHU216HW,2013-03-14 03:53:00,
2013-03-13 23:58:00,21.5,12.9,26.48,NW,315,19.0,36.0,69,0.00,,,0.00,WUHU216HW,2013-03-14 03:58:00,